createdAt,value
2023-01-29T00:03:03.572Z,0
2023-01-29T00:08:03.532Z,0
2023-01-29T00:13:03.607Z,0
2023-01-29T00:18:03.551Z,0
2023-01-29T00:23:03.541Z,0
2023-01-29T00:28:03.638Z,0
2023-01-29T00:33:03.533Z,0
2023-01-29T00:38:03.534Z,0
2023-01-29T00:43:03.595Z,0
2023-01-29T00:48:03.603Z,0
2023-01-29T00:53:03.541Z,0
2023-01-29T00:58:04.582Z,0
2023-01-29T01:03:03.659Z,0
2023-01-29T01:08:03.601Z,0
2023-01-29T01:13:03.645Z,0
2023-01-29T01:18:30.833Z,0
2023-01-29T01:23:03.876Z,0
2023-01-29T01:28:03.730Z,0
2023-01-29T01:33:03.562Z,0
2023-01-29T01:38:03.664Z,0
2023-01-29T01:43:03.577Z,0
2023-01-29T01:48:03.560Z,0
2023-01-29T01:53:03.567Z,0
2023-01-29T01:58:03.547Z,0
2023-01-29T02:03:03.572Z,0
2023-01-29T02:08:03.554Z,0
2023-01-29T02:13:03.550Z,0
2023-01-29T02:18:03.542Z,0
2023-01-29T02:23:04.582Z,0
2023-01-29T02:28:03.585Z,0
2023-01-29T02:33:03.574Z,0
2023-01-29T02:38:03.637Z,0
2023-01-29T02:43:03.556Z,0
2023-01-29T02:48:03.589Z,0
2023-01-29T02:53:03.580Z,0
2023-01-29T02:58:03.576Z,0
2023-01-29T03:08:03.632Z,0
2023-01-29T03:13:03.565Z,0
2023-01-29T03:18:03.634Z,0
2023-01-29T03:23:03.617Z,0
2023-01-29T03:28:03.563Z,0
2023-01-29T03:33:03.574Z,0
2023-01-29T03:38:03.558Z,0
2023-01-29T03:43:03.566Z,0
2023-01-29T03:48:03.572Z,0
2023-01-29T03:53:03.646Z,0
2023-01-29T03:58:03.564Z,0
2023-01-29T04:03:03.580Z,0
2023-01-29T04:08:03.581Z,0
2023-01-29T04:13:03.580Z,0
2023-01-29T04:18:03.565Z,0
2023-01-29T04:23:03.575Z,0
2023-01-29T04:28:03.683Z,0
2023-01-29T04:33:03.574Z,0
2023-01-29T04:38:03.599Z,0
2023-01-29T04:43:03.610Z,0
2023-01-29T04:48:03.606Z,0
2023-01-29T04:53:03.652Z,0
2023-01-29T04:58:03.680Z,0
2023-01-29T05:03:03.583Z,0
2023-01-29T05:08:04.776Z,0
2023-01-29T05:13:03.582Z,0
2023-01-29T05:18:03.562Z,0
2023-01-29T05:23:03.603Z,0
2023-01-29T05:28:03.653Z,0
2023-01-29T05:33:03.615Z,0
2023-01-29T05:38:03.585Z,0
2023-01-29T05:43:03.579Z,0
2023-01-29T05:48:03.613Z,0
2023-01-29T05:53:03.586Z,0
2023-01-29T05:58:06.853Z,0
2023-01-29T06:03:04.037Z,0
2023-01-29T06:08:03.594Z,0
2023-01-29T06:13:04.612Z,0
2023-01-29T06:18:06.626Z,0
2023-01-29T06:23:03.628Z,0
2023-01-29T06:28:03.636Z,0
2023-01-29T06:33:03.619Z,0
2023-01-29T06:38:03.596Z,0
2023-01-29T06:43:03.612Z,0
2023-01-29T06:48:03.598Z,0
2023-01-29T06:53:03.635Z,0
2023-01-29T06:58:03.589Z,0
2023-01-29T07:03:03.699Z,0
2023-01-29T07:08:03.663Z,0
2023-01-29T07:13:03.634Z,0
2023-01-29T07:18:03.608Z,0
2023-01-29T07:23:03.637Z,266
2023-01-29T07:28:03.647Z,0
2023-01-29T07:33:05.240Z,266
2023-01-29T07:38:03.723Z,267
2023-01-29T07:43:03.605Z,268
2023-01-29T07:48:03.645Z,270
2023-01-29T07:53:03.606Z,274
2023-01-29T07:58:03.658Z,272
2023-01-29T08:03:03.613Z,271
2023-01-29T08:08:07.748Z,271
2023-01-29T08:13:03.609Z,272
2023-01-29T08:18:03.622Z,272
2023-01-29T08:23:03.674Z,276
2023-01-29T08:28:03.770Z,274
2023-01-29T08:33:03.637Z,274
2023-01-29T08:38:03.603Z,272
2023-01-29T08:43:06.255Z,272
2023-01-29T08:48:03.725Z,276
2023-01-29T08:53:03.622Z,278
2023-01-29T08:58:03.855Z,281
2023-01-29T09:03:03.741Z,286
2023-01-29T09:08:03.612Z,288
2023-01-29T09:13:03.743Z,289
2023-01-29T09:18:03.774Z,294
2023-01-29T09:23:03.691Z,291
2023-01-29T09:28:03.727Z,292
2023-01-29T09:33:03.619Z,301
2023-01-29T09:38:03.626Z,310
2023-01-29T09:43:03.653Z,310
2023-01-29T09:48:03.633Z,309
2023-01-29T09:53:03.655Z,300
2023-01-29T09:58:03.669Z,299
2023-01-29T10:03:03.639Z,295
2023-01-29T10:08:03.657Z,301
2023-01-29T10:13:03.637Z,296
2023-01-29T10:18:03.625Z,324
2023-01-29T10:23:03.670Z,313
2023-01-29T10:28:03.627Z,321
2023-01-29T10:33:03.693Z,338
2023-01-29T10:38:03.759Z,331
2023-01-29T10:43:03.671Z,330
2023-01-29T10:48:03.713Z,320
2023-01-29T10:53:03.639Z,337
2023-01-29T10:58:03.641Z,332
2023-01-29T11:03:05.234Z,312
2023-01-29T11:08:03.703Z,306
2023-01-29T11:13:03.680Z,307
2023-01-29T11:18:03.681Z,310
2023-01-29T11:23:03.997Z,307
2023-01-29T11:28:03.665Z,316
2023-01-29T11:33:03.740Z,322
2023-01-29T11:38:03.643Z,317
2023-01-29T11:43:03.693Z,314
2023-01-29T11:48:03.648Z,314
2023-01-29T11:53:03.654Z,324
2023-01-29T11:58:03.678Z,323
2023-01-29T12:03:03.695Z,304
2023-01-29T12:08:03.697Z,303
2023-01-29T12:13:03.654Z,310
2023-01-29T12:18:03.660Z,305
2023-01-29T12:23:03.704Z,310
2023-01-29T12:28:04.120Z,308
2023-01-29T12:33:03.736Z,307
2023-01-29T12:38:03.717Z,311
2023-01-29T12:43:03.661Z,305
2023-01-29T12:48:03.692Z,306
2023-01-29T12:53:03.697Z,309
2023-01-29T12:58:03.686Z,307
2023-01-29T13:03:03.719Z,304
2023-01-29T13:08:03.680Z,302
2023-01-29T13:13:03.803Z,305
2023-01-29T13:18:03.706Z,306
2023-01-29T13:23:03.670Z,306
2023-01-29T13:28:03.955Z,297
2023-01-29T13:38:03.673Z,295
2023-01-29T13:43:03.726Z,293
2023-01-29T13:48:03.681Z,288
2023-01-29T13:53:03.694Z,286
2023-01-29T13:58:03.709Z,288
2023-01-29T14:03:03.659Z,288
2023-01-29T14:08:03.714Z,289
2023-01-29T14:13:03.711Z,285
2023-01-29T14:18:03.680Z,284
2023-01-29T14:23:03.717Z,283
2023-01-29T14:28:03.788Z,283
2023-01-29T14:33:03.698Z,283
2023-01-29T14:38:03.693Z,281
2023-01-29T14:43:03.719Z,282
2023-01-29T14:48:03.772Z,281
2023-01-29T14:53:03.754Z,278
2023-01-29T14:58:03.698Z,277
2023-01-29T15:03:03.752Z,275
2023-01-29T15:08:03.779Z,275
2023-01-29T15:13:03.828Z,272
2023-01-29T15:18:03.735Z,269
2023-01-29T15:23:03.752Z,268
2023-01-29T15:28:03.729Z,267
2023-01-29T15:33:03.768Z,267
2023-01-29T15:38:03.719Z,267
2023-01-29T15:43:03.708Z,266
2023-01-29T15:48:03.745Z,0
2023-01-29T15:53:03.731Z,0
2023-01-29T15:58:03.866Z,0
2023-01-29T16:03:03.766Z,0
2023-01-29T16:08:03.727Z,0
2023-01-29T16:13:03.725Z,0
2023-01-29T16:18:03.697Z,0
2023-01-29T16:23:03.852Z,0
2023-01-29T16:28:03.731Z,0
2023-01-29T16:33:03.750Z,0
2023-01-29T16:38:04.188Z,0
2023-01-29T16:43:03.693Z,0
2023-01-29T16:48:03.725Z,0
2023-01-29T16:53:03.734Z,0
2023-01-29T16:58:03.729Z,0
2023-01-29T17:03:03.760Z,0
2023-01-29T17:08:03.712Z,0
2023-01-29T17:13:03.832Z,0
2023-01-29T17:18:03.712Z,0
2023-01-29T17:23:03.745Z,0
2023-01-29T17:28:03.779Z,0
2023-01-29T17:33:03.726Z,0
2023-01-29T17:38:05.027Z,0
2023-01-29T17:43:03.738Z,0
2023-01-29T17:48:03.729Z,0
2023-01-29T17:53:03.774Z,0
2023-01-29T17:58:03.741Z,0
2023-01-29T18:03:03.732Z,0
2023-01-29T18:13:10.094Z,0
2023-01-29T18:18:03.730Z,0
2023-01-29T18:23:03.711Z,0
2023-01-29T18:28:03.803Z,0
2023-01-29T18:33:03.796Z,0
2023-01-29T18:38:03.874Z,0
2023-01-29T18:43:03.944Z,0
2023-01-29T18:48:03.718Z,0
2023-01-29T18:53:03.773Z,0
2023-01-29T18:58:25.345Z,0
2023-01-29T19:03:03.740Z,0
2023-01-29T19:08:04.988Z,0
2023-01-29T19:13:07.004Z,0
2023-01-29T19:18:03.820Z,0
2023-01-29T19:23:03.881Z,0
2023-01-29T19:28:03.746Z,0
2023-01-29T19:33:03.723Z,0
2023-01-29T19:38:03.778Z,0
2023-01-29T19:43:03.771Z,0
2023-01-29T19:48:03.797Z,0
2023-01-29T19:53:03.780Z,0
2023-01-29T19:58:03.767Z,0
2023-01-29T20:03:03.794Z,0
2023-01-29T20:08:03.744Z,0
2023-01-29T20:13:03.762Z,0
2023-01-29T20:18:03.738Z,0
2023-01-29T20:23:03.798Z,0
2023-01-29T20:28:03.760Z,0
2023-01-29T20:33:03.751Z,0
2023-01-29T20:38:03.762Z,0
2023-01-29T20:43:03.750Z,0
2023-01-29T20:48:03.789Z,0
2023-01-29T20:53:03.831Z,0
2023-01-29T20:58:06.937Z,0
2023-01-29T21:03:03.741Z,0
2023-01-29T21:08:03.808Z,0
2023-01-29T21:13:03.763Z,0
2023-01-29T21:18:03.758Z,0
2023-01-29T21:23:07.230Z,0
2023-01-29T21:28:03.779Z,0
2023-01-29T21:33:03.755Z,0
2023-01-29T21:38:03.778Z,0
2023-01-29T21:43:03.805Z,0
2023-01-29T21:48:03.819Z,0
2023-01-29T21:53:03.770Z,0
2023-01-29T21:58:03.757Z,0
2023-01-29T22:03:03.855Z,0
2023-01-29T22:08:03.770Z,0
2023-01-29T22:13:03.959Z,0
2023-01-29T22:18:03.766Z,0
2023-01-29T22:23:03.872Z,0
2023-01-29T22:28:03.791Z,0
2023-01-29T22:33:03.801Z,0
2023-01-29T22:38:03.966Z,0
2023-01-29T22:43:03.782Z,0
2023-01-29T22:48:03.791Z,0
2023-01-29T22:53:03.829Z,0
2023-01-29T22:58:03.817Z,0
2023-01-29T23:03:03.787Z,0
2023-01-29T23:08:03.856Z,0
2023-01-29T23:13:03.828Z,0
2023-01-29T23:18:03.794Z,0
2023-01-29T23:23:03.779Z,0
2023-01-29T23:28:03.810Z,0
2023-01-29T23:33:03.766Z,0
2023-01-29T23:38:03.774Z,0
2023-01-29T23:43:03.777Z,0
2023-01-29T23:48:03.812Z,0
2023-01-29T23:53:03.803Z,0
2023-01-29T23:58:03.800Z,0
